Time;durP1;ratioP1;P1;durP2;ratioP2;P2;SDS_P1;SDS_P2;PMS_P1;PMS_P2;Temp;Humidity;BMP_temperature;BMP_pressure;BME280_temperature;BME280_humidity;BME280_pressure;Samples;Min_cycle;Max_cycle;Signal;HPM_P1;HPM_P2
2022/04/19 00:00:57;;;;;;;4.10;1.60;;;;;;;15.01;49.16;100544.03;5066797;28;20127;-81
2022/04/19 00:03:24;;;;;;;2.80;0.97;;;;;;;14.85;49.19;100537.88;5070464;28;20457;-81
2022/04/19 00:05:51;;;;;;;4.70;1.50;;;;;;;15.07;49.18;100558.81;5069983;28;20079;-81
2022/04/19 00:08:18;;;;;;;5.80;1.40;;;;;;;14.73;49.46;100531.06;5071545;28;20123;-81
2022/04/19 00:10:45;;;;;;;2.97;1.40;;;;;;;14.92;49.12;100549.53;5072130;28;20052;-80
2022/04/19 00:13:16;;;;;;;2.20;1.23;;;;;;;14.90;49.36;100559.41;5071166;28;20082;-81
2022/04/19 00:15:43;;;;;;;5.20;1.40;;;;;;;14.85;49.28;100557.53;5053070;28;20044;-81
2022/04/19 00:18:11;;;;;;;2.63;1.13;;;;;;;14.86;49.38;100564.00;5071422;28;20078;-79
2022/04/19 00:20:42;;;;;;;2.10;1.20;;;;;;;14.66;49.64;100525.84;5064442;28;20490;-80
2022/04/19 00:23:13;;;;;;;4.63;1.50;;;;;;;14.56;49.80;100529.66;5065402;28;20056;-80
2022/04/19 00:25:44;;;;;;;2.73;1.30;;;;;;;14.76;49.57;100567.81;5072318;28;20049;-81
2022/04/19 00:28:12;;;;;;;2.40;1.30;;;;;;;14.74;49.45;100566.50;5074937;28;20484;-81
2022/04/19 00:30:39;;;;;;;1.70;1.17;;;;;;;14.49;49.47;100520.78;5070438;28;20052;-80
2022/04/19 00:33:07;;;;;;;2.47;0.87;;;;;;;14.67;49.80;100566.88;5071458;28;20051;-79
2022/04/19 00:35:36;;;;;;;7.10;1.90;;;;;;;14.75;49.66;100565.34;5068985;28;20102;-78
2022/04/19 00:38:04;;;;;;;6.53;1.73;;;;;;;14.57;49.70;100530.53;5072262;28;20140;-79
2022/04/19 00:40:31;;;;;;;4.10;1.30;;;;;;;14.67;49.99;100559.28;5065847;28;20132;-80
2022/04/19 00:42:58;;;;;;;2.37;0.97;;;;;;;14.71;49.95;100565.13;5063222;28;20085;-82
2022/04/19 00:45:25;;;;;;;3.80;1.13;;;;;;;14.74;50.12;100572.09;5062852;28;20128;-81
2022/04/19 00:47:54;;;;;;;3.27;1.33;;;;;;;14.59;49.56;100536.66;5066544;28;20509;-75
2022/04/19 00:50:22;;;;;;;4.37;1.87;;;;;;;14.56;50.03;100526.03;5067615;28;20076;-79
2022/04/19 00:52:50;;;;;;;3.63;2.00;;;;;;;14.78;50.08;100551.50;5065581;28;20125;-81
2022/04/19 00:55:17;;;;;;;4.33;1.50;;;;;;;14.71;50.13;100545.44;5050921;28;20094;-80
2022/04/19 00:57:46;;;;;;;2.10;1.43;;;;;;;14.65;50.48;100541.88;5072334;28;20123;-85
2022/04/19 01:00:14;;;;;;;7.30;1.60;;;;;;;14.69;50.14;100508.38;5049945;28;20051;-85
2022/04/19 01:02:41;;;;;;;4.10;1.57;;;;;;;14.75;50.13;100529.63;5065922;28;20132;-87
2022/04/19 01:05:09;;;;;;;2.77;1.60;;;;;;;14.91;50.11;100542.25;5068574;28;20099;-87
2022/04/19 01:07:37;;;;;;;4.63;1.50;;;;;;;14.78;49.61;100534.63;5055412;28;20053;-85
2022/04/19 01:10:07;;;;;;;3.47;1.83;;;;;;;14.88;49.71;100540.06;5068686;28;20139;-87
2022/04/19 01:15:20;;;;;;;2.27;1.33;;;;;;;14.67;49.83;100514.31;5076900;28;20048;-86
2022/04/19 01:17:48;;;;;;;3.17;1.30;;;;;;;14.71;49.90;100516.50;5090007;28;20072;-85
2022/04/19 01:20:15;;;;;;;3.47;1.50;;;;;;;14.78;49.70;100529.00;5075617;28;20055;-85
2022/04/19 01:22:43;;;;;;;4.33;1.63;;;;;;;14.86;50.20;100531.09;5072945;28;20055;-86
2022/04/19 01:25:11;;;;;;;2.20;1.50;;;;;;;14.82;50.01;100523.59;5094209;28;20067;-86
2022/04/19 01:27:38;;;;;;;3.10;1.50;;;;;;;14.76;49.95;100505.16;5074329;28;20144;-87
2022/04/19 01:30:08;;;;;;;2.63;1.03;;;;;;;14.81;50.50;100497.47;5069432;28;20079;-87
2022/04/19 01:32:36;;;;;;;2.63;1.37;;;;;;;14.82;50.65;100495.47;5075710;28;20052;-88
2022/04/19 01:35:15;;;;;;;5.17;1.87;;;;;;;14.58;50.90;100475.97;5083208;28;20963;-88
2022/04/19 01:37:45;;;;;;;3.87;1.50;;;;;;;14.85;50.66;100503.31;5066298;28;20052;-86
2022/04/19 01:40:18;;;;;;;;;;;;;;;14.78;50.67;100512.13;5074627;28;20048;-86
2022/04/19 01:42:52;;;;;;;6.33;1.83;;;;;;;14.80;50.50;100506.19;5067559;28;19920;-84
2022/04/19 01:45:24;;;;;;;3.17;1.37;;;;;;;14.75;50.26;100495.06;5084923;28;20112;-84
2022/04/19 01:47:52;;;;;;;2.40;1.70;;;;;;;14.78;50.25;100517.75;5082055;28;20080;-85
2022/04/19 01:50:20;;;;;;;3.37;1.30;;;;;;;14.77;50.15;100518.91;5069904;28;20079;-85
2022/04/19 01:52:49;;;;;;;2.47;1.50;;;;;;;14.54;50.91;100489.81;5072740;28;20147;-85
2022/04/19 01:55:18;;;;;;;7.30;1.80;;;;;;;14.67;50.72;100493.81;5072915;28;20088;-85
2022/04/19 01:57:51;;;;;;;6.50;1.48;;;;;;;14.98;50.72;100527.78;5074132;28;20094;-86
2022/04/19 02:00:19;;;;;;;2.93;1.47;;;;;;;14.77;50.76;100504.84;5075564;28;20076;-85
2022/04/19 02:02:47;;;;;;;1.60;1.00;;;;;;;14.84;50.75;100516.53;5037239;28;20523;-85
2022/04/19 02:05:15;;;;;;;3.43;1.40;;;;;;;14.82;50.68;100529.22;5068564;28;20087;-88
2022/04/19 02:07:44;;;;;;;2.90;1.10;;;;;;;14.75;50.19;100523.16;5070356;28;20102;-81
2022/04/19 02:10:17;;;;;;;6.90;1.70;;;;;;;14.67;50.11;100519.94;5052100;28;20045;-83
2022/04/19 02:12:44;;;;;;;3.13;1.43;;;;;;;14.59;50.77;100525.41;5071662;28;20087;-81
2022/04/19 02:15:14;;;;;;;7.77;1.70;;;;;;;14.54;50.44;100529.16;5050941;28;20115;-81
2022/04/19 02:17:49;;;;;;;2.15;1.23;;;;;;;14.38;50.47;100503.25;5064040;28;20041;-79
2022/04/19 02:20:17;;;;;;;6.07;1.53;;;;;;;14.37;50.54;100506.38;5064061;28;20127;-80
2022/04/19 02:22:45;;;;;;;5.47;1.50;;;;;;;14.26;50.69;100499.28;5057125;28;20072;-80
2022/04/19 02:25:13;;;;;;;4.80;1.50;;;;;;;14.13;50.70;100470.00;5074099;28;20576;-82
2022/04/19 02:27:41;;;;;;;5.90;1.40;;;;;;;14.36;50.64;100525.22;5075433;28;20076;-80
2022/04/19 02:30:15;;;;;;;5.00;2.13;;;;;;;14.15;50.90;100492.97;5074318;28;20123;-80
2022/04/19 02:32:47;;;;;;;3.60;1.40;;;;;;;14.28;50.74;100511.84;5073240;28;20060;-80
2022/04/19 02:35:17;;;;;;;3.60;1.03;;;;;;;14.25;50.93;100504.03;5082810;28;20097;-83
2022/04/19 02:37:47;;;;;;;;;;;;;;;14.14;51.14;100525.00;5070194;28;20080;-81
2022/04/19 02:40:15;;;;;;;6.00;1.27;;;;;;;14.17;50.57;100518.78;5074447;28;20008;-82
2022/04/19 02:42:42;;;;;;;3.97;1.90;;;;;;;14.02;50.43;100497.41;5074757;28;20131;-82
2022/04/19 02:45:09;;;;;;;5.70;1.40;;;;;;;14.09;50.25;100516.69;5067250;28;20127;-82
2022/04/19 02:47:37;;;;;;;4.83;1.20;;;;;;;13.99;50.44;100515.69;5067680;28;20089;-82
2022/04/19 02:50:05;;;;;;;4.57;1.67;;;;;;;14.06;50.03;100528.53;5083934;28;20074;-82
2022/04/19 02:52:32;;;;;;;4.33;1.60;;;;;;;14.03;50.21;100523.50;5073653;28;20131;-82
2022/04/19 02:54:59;;;;;;;5.40;1.60;;;;;;;13.83;50.44;100496.59;5071415;28;20080;-81
2022/04/19 02:57:26;;;;;;;2.80;1.30;;;;;;;13.72;50.31;100493.09;5091181;28;20079;-81
2022/04/19 02:59:53;;;;;;;3.07;1.37;;;;;;;13.91;50.30;100522.00;5084801;28;20040;-82
2022/04/19 03:02:20;;;;;;;5.27;1.77;;;;;;;13.85;50.48;100512.00;5072398;28;20045;-83
2022/04/19 03:04:47;;;;;;;2.13;1.53;;;;;;;13.80;50.74;100514.03;5052267;28;20052;-83
2022/04/19 03:07:14;;;;;;;3.83;1.53;;;;;;;13.44;50.62;100459.25;5072621;28;20127;-87
2022/04/19 03:09:44;;;;;;;5.47;1.70;;;;;;;13.62;50.78;100496.06;5071887;28;20140;-84
2022/04/19 03:12:11;;;;;;;3.80;1.00;;;;;;;13.65;50.68;100495.44;5063156;28;20106;-87
2022/04/19 03:14:38;;;;;;;3.37;1.30;;;;;;;13.59;50.73;100502.25;5072154;28;20591;-82
2022/04/19 03:17:06;;;;;;;1.33;0.90;;;;;;;13.52;50.70;100481.03;5073492;28;20102;-83
2022/04/19 03:19:33;;;;;;;2.57;1.27;;;;;;;13.49;51.27;100478.81;5069063;28;20048;-81
2022/04/19 03:22:00;;;;;;;3.47;1.23;;;;;;;13.50;51.48;100491.72;5071583;28;20079;-84
2022/04/19 03:29:58;;;;;;;2.03;1.40;;;;;;;13.33;51.48;100452.09;5069062;28;20048;-81
2022/04/19 03:32:25;;;;;;;2.13;1.13;;;;;;;13.55;51.37;100481.56;5070378;28;20060;-80
2022/04/19 03:34:53;;;;;;;2.83;1.33;;;;;;;13.40;51.36;100454.53;5070820;28;20175;-81
2022/04/19 03:37:19;;;;;;;2.33;1.53;;;;;;;13.37;51.29;100458.81;5052411;28;20049;-80
2022/04/19 03:39:46;;;;;;;3.33;1.43;;;;;;;13.54;50.92;100477.06;5071391;28;20128;-83
2022/04/19 03:42:13;;;;;;;5.23;1.10;;;;;;;13.48;50.71;100459.50;5069394;28;20112;-80
2022/04/19 03:44:40;;;;;;;4.57;1.27;;;;;;;13.42;51.04;100450.31;5073380;28;20202;-82
2022/04/19 03:47:07;;;;;;;3.03;1.30;;;;;;;13.42;50.77;100453.13;5053998;28;21282;-81
2022/04/19 03:49:40;;;;;;;3.33;1.43;;;;;;;13.37;50.85;100456.00;5075879;28;20105;-83
2022/04/19 03:52:08;;;;;;;4.00;1.50;;;;;;;13.57;50.89;100493.31;5071265;28;20156;-83
2022/04/19 03:54:35;;;;;;;5.90;2.23;;;;;;;13.42;50.70;100458.72;5074696;28;20072;-82
2022/04/19 03:57:07;;;;;;;5.87;1.60;;;;;;;13.44;50.81;100483.69;5069541;28;20088;-82
2022/04/19 03:59:40;;;;;;;3.27;1.43;;;;;;;13.45;50.64;100488.16;5074441;28;20083;-82
2022/04/19 04:02:15;;;;;;;2.40;1.20;;;;;;;13.31;50.70;100456.38;5076032;28;20098;-82
2022/04/19 04:04:42;;;;;;;2.63;1.37;;;;;;;13.49;50.54;100489.22;5078958;28;20139;-84
2022/04/19 04:07:09;;;;;;;4.67;1.17;;;;;;;12.88;50.77;100408.66;5071087;28;20060;-82
2022/04/19 04:09:36;;;;;;;2.30;1.07;;;;;;;13.38;50.65;100491.31;5070513;28;20076;-83
2022/04/19 04:12:12;;;;;;;3.67;1.10;;;;;;;13.41;50.85;100496.34;5068031;28;20470;-82
2022/04/19 04:14:40;;;;;;;4.33;1.50;;;;;;;13.38;50.77;100473.66;5071543;28;20040;-83
2022/04/19 04:17:07;;;;;;;5.07;1.27;;;;;;;13.38;50.67;100491.31;5063968;28;22923;-82
2022/04/19 04:19:34;;;;;;;4.27;1.30;;;;;;;13.25;50.40;100464.00;5068195;28;20080;-82
2022/04/19 04:22:01;;;;;;;2.27;1.50;;;;;;;13.22;51.03;100478.59;5066636;28;20060;-81
2022/04/19 04:24:28;;;;;;;2.97;1.00;;;;;;;13.33;50.95;100487.75;5064705;28;20114;-82
2022/04/19 04:26:57;;;;;;;3.87;1.20;;;;;;;13.37;50.93;100492.47;5069048;28;20090;-78
2022/04/19 04:29:24;;;;;;;4.63;1.48;;;;;;;13.26;50.82;100488.09;5069698;28;20131;-80
2022/04/19 04:31:51;;;;;;;3.40;1.43;;;;;;;13.31;50.80;100479.63;5054093;28;20049;-81
2022/04/19 04:34:18;;;;;;;3.40;1.77;;;;;;;13.38;50.65;100485.72;5052633;28;20131;-81
2022/04/19 04:36:44;;;;;;;4.93;1.20;;;;;;;13.29;50.70;100465.06;5067767;28;20135;-81
2022/04/19 04:39:11;;;;;;;3.37;1.27;;;;;;;13.18;50.50;100458.72;5069875;28;20423;-86
2022/04/19 04:41:38;;;;;;;3.70;1.60;;;;;;;13.20;50.20;100447.22;5072273;28;20128;-85
2022/04/19 04:44:05;;;;;;;2.23;1.50;;;;;;;13.33;50.64;100484.94;5068959;28;20128;-86
2022/04/19 04:49:35;;;;;;;2.07;1.30;;;;;;;13.33;50.82;100485.75;5065593;28;20094;-85
2022/04/19 04:52:04;;;;;;;2.20;1.20;;;;;;;13.25;50.88;100480.84;5060952;28;20466;-79
2022/04/19 04:54:31;;;;;;;4.33;1.43;;;;;;;13.17;51.14;100473.06;5070220;28;20132;-77
2022/04/19 04:56:58;;;;;;;3.53;1.43;;;;;;;13.07;50.97;100454.41;5069423;28;20426;-77
2022/04/19 04:59:25;;;;;;;1.33;1.00;;;;;;;13.09;51.19;100456.88;5061284;28;20087;-80
2022/04/19 05:01:52;;;;;;;2.10;0.90;;;;;;;13.34;50.68;100486.63;5071526;28;20079;-80
2022/04/19 05:04:19;;;;;;;2.07;1.33;;;;;;;12.87;51.17;100426.63;5069506;28;20083;-81
2022/04/19 05:06:46;;;;;;;3.13;1.40;;;;;;;13.18;51.14;100475.56;5068737;28;20132;-81
2022/04/19 05:09:16;;;;;;;3.63;1.30;;;;;;;13.15;50.97;100464.09;5070139;28;20127;-82
2022/04/19 05:11:46;;;;;;;4.60;1.48;;;;;;;13.13;51.06;100472.84;5068006;28;20091;-80
2022/04/19 05:14:16;;;;;;;4.00;1.05;;;;;;;13.27;51.28;100487.00;5066782;28;20493;-78
2022/04/19 05:16:43;;;;;;;2.75;1.05;;;;;;;13.15;51.47;100480.94;5062948;28;20135;-79
2022/04/19 05:19:09;;;;;;;2.83;1.13;;;;;;;13.16;51.27;100480.66;5071866;28;20056;-79
2022/04/19 05:21:38;;;;;;;4.90;2.10;;;;;;;13.24;51.19;100496.00;5055423;28;20649;-86
2022/04/19 05:24:05;;;;;;;3.33;1.57;;;;;;;13.14;51.25;100473.66;5057473;28;20146;-83
2022/04/19 05:26:32;;;;;;;5.10;1.80;;;;;;;13.09;51.41;100460.53;5069312;28;20131;-85
2022/04/19 05:28:59;;;;;;;3.80;1.67;;;;;;;13.27;51.44;100492.59;5051175;28;20147;-84
2022/04/19 05:31:26;;;;;;;2.43;1.20;;;;;;;13.13;51.18;100467.22;5048262;28;20131;-78
2022/04/19 05:33:53;;;;;;;3.47;1.67;;;;;;;13.30;51.11;100499.56;5059678;28;20094;-79
2022/04/19 05:36:22;;;;;;;3.10;1.40;;;;;;;13.11;51.58;100469.47;5068382;28;20102;-79
2022/04/19 05:38:52;;;;;;;2.37;1.10;;;;;;;13.13;51.13;100467.22;5071466;28;20095;-82
2022/04/19 05:41:20;;;;;;;2.75;1.00;;;;;;;13.10;51.29;100475.41;5068434;28;20464;-83
2022/04/19 05:43:49;;;;;;;2.37;1.53;;;;;;;13.26;51.20;100493.72;5065973;28;20898;-81
2022/04/19 05:46:17;;;;;;;7.57;2.43;;;;;;;13.27;51.37;100503.81;5066454;28;20082;-83
2022/04/19 05:48:45;;;;;;;7.17;2.03;;;;;;;13.38;51.24;100510.97;5048328;28;20051;-82
2022/04/19 05:51:12;;;;;;;4.73;1.40;;;;;;;13.14;51.24;100494.13;5061356;28;20521;-81
2022/04/19 05:53:40;;;;;;;3.83;1.30;;;;;;;13.21;51.30;100496.56;5063368;28;20133;-83
2022/04/19 05:56:07;;;;;;;3.93;0.73;;;;;;;13.31;51.23;100521.72;5066657;28;20151;-83
2022/04/19 05:58:34;;;;;;;1.67;1.07;;;;;;;13.11;51.41;100513.50;5070780;28;20076;-81
2022/04/19 06:01:01;;;;;;;1.53;0.93;;;;;;;13.27;51.17;100526.25;5067839;28;20051;-78
2022/04/19 06:06:14;;;;;;;3.97;1.33;;;;;;;13.39;51.29;100543.47;5061240;28;20454;-82
2022/04/19 06:08:42;;;;;;;2.53;1.20;;;;;;;13.38;51.01;100544.63;5069532;28;20139;-82
2022/04/19 06:11:12;;;;;;;3.57;1.10;;;;;;;13.38;50.92;100546.59;5068230;28;20047;-82
2022/04/19 06:13:40;;;;;;;4.38;1.15;;;;;;;13.11;50.99;100507.91;5069497;28;20049;-82
2022/04/19 06:16:08;;;;;;;2.93;1.50;;;;;;;13.22;51.00;100529.91;5071517;28;20048;-83
2022/04/19 06:18:35;;;;;;;5.27;2.67;;;;;;;13.28;51.01;100547.53;5062719;28;20060;-81
2022/04/19 06:21:04;;;;;;;2.53;1.50;;;;;;;13.20;51.14;100531.34;5065378;28;20731;-82
2022/04/19 06:23:32;;;;;;;2.90;1.50;;;;;;;13.39;51.03;100543.47;5063302;28;20052;-81
2022/04/19 06:25:59;;;;;;;5.87;1.67;;;;;;;13.23;51.16;100508.28;5065009;28;20056;-80
2022/04/19 06:28:27;;;;;;;2.57;1.20;;;;;;;13.51;50.95;100535.47;5069814;28;20154;-81
2022/04/19 06:30:54;;;;;;;5.23;2.03;;;;;;;13.48;50.92;100524.03;5065295;28;20136;-81
2022/04/19 06:33:21;;;;;;;6.03;1.40;;;;;;;13.66;50.73;100547.63;5073709;28;20053;-81
2022/04/19 06:35:50;;;;;;;2.20;1.00;;;;;;;13.69;50.51;100539.44;5066837;28;22256;-80
2022/04/19 06:38:17;;;;;;;3.40;1.40;;;;;;;14.03;50.41;100568.44;5074173;28;20134;-80
2022/04/19 06:40:44;;;;;;;3.83;1.40;;;;;;;14.06;50.17;100557.44;5071545;28;20559;-81
2022/04/19 06:43:11;;;;;;;3.70;1.57;;;;;;;14.43;49.65;100581.84;5068974;28;20052;-80
2022/04/19 06:45:39;;;;;;;5.57;1.80;;;;;;;14.65;49.35;100598.09;5068881;28;20137;-81
2022/04/19 06:48:06;;;;;;;2.13;1.37;;;;;;;14.69;49.13;100581.44;5069116;28;20435;-85
2022/04/19 06:50:33;;;;;;;2.17;1.37;;;;;;;14.97;49.00;100587.13;5065152;28;20143;-78
2022/04/19 06:53:00;;;;;;;3.73;1.03;;;;;;;14.91;48.44;100564.75;5064780;28;20140;-85
2022/04/19 06:55:27;;;;;;;2.00;1.10;;;;;;;15.68;49.79;100580.13;5064418;28;20599;-81
2022/04/19 06:57:53;;;;;;;5.20;1.20;;;;;;;15.73;48.72;100582.84;5070240;28;20110;-76
2022/04/19 07:00:21;;;;;;;4.10;1.07;;;;;;;15.94;48.97;100565.50;5070424;28;20131;-77
2022/04/19 07:02:48;;;;;;;0.60;0.60;;;;;;;16.39;48.13;100571.19;5073036;28;20048;-77
2022/04/19 07:05:16;;;;;;;2.80;0.93;;;;;;;16.66;47.86;100588.00;5054144;28;20453;-77
2022/04/19 07:07:43;;;;;;;3.88;1.98;;;;;;;16.87;47.52;100601.59;5061965;28;20049;-77
2022/04/19 07:10:11;;;;;;;2.65;1.50;;;;;;;17.00;47.31;100575.31;5054790;28;20044;-75
2022/04/19 07:12:45;;;;;;;5.70;1.38;;;;;;;17.19;47.61;100587.16;5058240;28;20072;-76
2022/04/19 07:15:12;;;;;;;7.83;2.27;;;;;;;17.40;46.78;100564.03;5057091;28;20098;-77
2022/04/19 07:17:40;;;;;;;2.92;1.30;;;;;;;16.91;46.79;100453.94;5072469;28;20131;-77
2022/04/19 07:28:24;;;;;;;4.68;1.05;;;;;;;18.47;44.85;100606.00;5072625;28;20052;-77
2022/04/19 07:30:51;;;;;;;1.48;0.90;;;;;;;18.55;44.13;100593.00;5046122;28;20135;-77
2022/04/19 07:33:18;;;;;;;1.80;1.20;;;;;;;18.87;44.77;100609.50;5070135;28;20087;-76
2022/04/19 07:35:46;;;;;;;9.15;1.17;;;;;;;19.31;44.81;100618.69;5068658;28;20474;-77
2022/04/19 07:38:14;;;;;;;2.45;1.40;;;;;;;19.63;45.30;100597.44;5070367;28;20150;-77
2022/04/19 07:40:41;;;;;;;1.92;1.23;;;;;;;19.76;43.49;100598.41;5064394;28;20052;-77
2022/04/19 07:43:08;;;;;;;3.88;1.38;;;;;;;19.75;43.53;100618.56;5055485;28;20157;-77
2022/04/19 07:45:37;;;;;;;3.72;1.52;;;;;;;19.61;43.69;100602.59;5052052;28;20135;-77
2022/04/19 07:48:05;;;;;;;3.28;1.25;;;;;;;19.49;43.63;100577.00;5053063;28;20129;-76
2022/04/19 07:50:34;;;;;;;3.95;1.50;;;;;;;19.44;42.96;100567.84;5054122;28;20125;-77
2022/04/19 07:53:01;;;;;;;3.58;1.50;;;;;;;19.22;42.95;100543.47;5055069;28;20131;-77
2022/04/19 07:55:27;;;;;;;5.95;1.30;;;;;;;19.33;42.35;100565.41;5054053;28;21877;-77
2022/04/19 07:57:55;;;;;;;1.95;1.08;;;;;;;19.69;42.23;100572.56;5053898;28;20052;-76
2022/04/19 08:00:24;;;;;;;5.47;1.33;;;;;;;19.78;41.68;100586.72;5056112;28;20084;-78
2022/04/19 08:02:50;;;;;;;2.70;1.75;;;;;;;20.02;42.08;100569.06;5061448;28;20701;-77
2022/04/19 08:05:18;;;;;;;3.20;1.73;;;;;;;20.13;41.39;100582.47;5052996;28;20052;-77
2022/04/19 08:07:48;;;;;;;2.53;1.30;;;;;;;19.83;40.81;100527.03;5055278;28;20519;-77
2022/04/19 08:10:15;;;;;;;1.90;1.10;;;;;;;19.97;41.04;100560.75;5052563;28;20139;-75
2022/04/19 08:12:42;;;;;;;1.30;0.90;;;;;;;20.38;41.17;100605.31;5052317;28;20709;-76
2022/04/19 08:15:09;;;;;;;2.58;1.08;;;;;;;20.44;41.29;100586.91;5051267;28;22227;-76
2022/04/19 08:17:37;;;;;;;3.53;1.95;;;;;;;20.74;40.35;100613.22;5050591;28;20175;-77
2022/04/19 08:20:05;;;;;;;2.67;1.20;;;;;;;20.88;39.94;100615.75;5053574;28;20607;-76
2022/04/19 08:22:32;;;;;;;2.28;1.02;;;;;;;21.08;39.38;100610.38;5052710;28;20419;-76
2022/04/19 08:25:03;;;;;;;1.65;1.17;;;;;;;21.03;39.19;100589.56;5054963;28;20075;-75
2022/04/19 08:27:30;;;;;;;4.68;2.17;;;;;;;21.22;39.19;100593.84;5052761;28;20071;-76
2022/04/19 08:29:57;;;;;;;3.03;1.20;;;;;;;21.21;38.61;100586.53;5034871;28;20056;-77
2022/04/19 08:32:24;;;;;;;3.58;2.20;;;;;;;21.46;37.92;100593.09;5066893;28;20178;-76
2022/04/19 08:34:51;;;;;;;0.65;0.65;;;;;;;21.40;38.30;100584.00;5071278;28;20475;-76
2022/04/19 08:37:20;;;;;;;7.40;2.65;;;;;;;21.41;38.21;100540.19;5068125;28;20548;-77
2022/04/19 08:39:46;;;;;;;3.60;1.30;;;;;;;21.92;37.63;100594.66;5055220;28;20143;-77
2022/04/19 08:42:13;;;;;;;3.63;1.10;;;;;;;22.05;37.06;100580.41;5060813;28;20045;-76
2022/04/19 08:44:40;;;;;;;1.73;1.02;;;;;;;22.17;36.83;100577.59;5058196;28;20163;-77
2022/04/19 08:47:07;;;;;;;3.35;0.98;;;;;;;22.39;36.46;100607.50;5050820;28;20063;-75
2022/04/19 08:49:41;;;;;;;1.40;1.13;;;;;;;22.47;36.34;100587.47;5051733;28;20063;-75
2022/04/19 08:52:08;;;;;;;3.15;1.40;;;;;;;22.50;36.14;100574.53;5054111;28;20053;-77
2022/04/19 08:57:30;;;;;;;3.17;1.35;;;;;;;22.84;35.71;100595.06;5050856;28;20052;-75
2022/04/19 08:59:58;;;;;;;5.43;2.78;;;;;;;22.89;34.73;100587.06;5051370;28;20176;-76
2022/04/19 09:02:27;;;;;;;5.43;1.45;;;;;;;22.92;35.09;100580.66;5050488;28;20084;-76
2022/04/19 09:05:10;;;;;;;1.58;0.90;;;;;;;23.02;35.29;100578.50;5058671;28;20060;-76
2022/04/19 09:07:37;;;;;;;3.60;1.73;;;;;;;23.17;34.18;100574.81;5063347;28;20049;-77
2022/04/19 09:10:06;;;;;;;4.95;1.40;;;;;;;23.19;34.19;100561.06;5067138;28;20053;-76
2022/04/19 09:12:33;;;;;;;5.65;1.75;;;;;;;23.30;34.44;100586.97;5043582;28;20148;-77
2022/04/19 09:15:08;;;;;;;1.40;1.10;;;;;;;23.11;34.18;100574.28;5065259;28;20492;-76
2022/04/19 09:17:36;;;;;;;4.13;1.20;;;;;;;22.91;33.88;100573.28;5068403;28;20040;-76
2022/04/19 09:20:15;;;;;;;2.60;1.35;;;;;;;22.71;33.81;100569.47;5066260;28;20755;-76
2022/04/19 09:22:43;;;;;;;1.77;1.27;;;;;;;22.89;34.40;100598.44;5070703;28;20040;-76
2022/04/19 09:25:24;;;;;;;1.30;0.82;;;;;;;22.85;34.23;100580.44;5053171;28;20084;-76
2022/04/19 09:27:55;;;;;;;4.22;1.08;;;;;;;22.72;34.44;100581.69;5067217;28;20091;-76
2022/04/19 09:30:24;;;;;;;5.13;1.05;;;;;;;22.82;34.29;100592.53;5044607;28;20444;-76
2022/04/19 09:33:00;;;;;;;2.65;1.63;;;;;;;23.02;33.96;100602.09;5071143;28;20102;-77
2022/04/19 09:35:36;;;;;;;1.33;1.10;;;;;;;23.03;34.21;100585.84;5050249;28;20147;-77
2022/04/19 09:38:05;;;;;;;1.02;0.90;;;;;;;23.21;33.87;100604.22;5067707;28;20084;-76
2022/04/19 09:40:37;;;;;;;1.48;1.08;;;;;;;23.56;33.49;100614.97;5065341;28;20053;-75
2022/04/19 09:43:13;;;;;;;3.25;1.10;;;;;;;23.73;32.70;100613.78;5055925;28;20056;-77
2022/04/19 09:45:51;;;;;;;4.15;1.40;;;;;;;23.65;33.23;100607.84;5073421;28;20110;-76
2022/04/19 09:48:23;;;;;;;2.38;2.15;;;;;;;23.48;33.30;100564.66;5066406;28;20049;-76
2022/04/19 09:50:53;;;;;;;8.15;1.63;;;;;;;23.65;32.95;100624.13;5071243;28;20098;-76
2022/04/19 09:53:26;;;;;;;1.08;0.90;;;;;;;23.85;32.86;100617.34;5067927;28;20048;-75
2022/04/19 09:55:56;;;;;;;5.22;1.90;;;;;;;23.78;32.68;100571.56;5062236;28;20204;-76
2022/04/19 09:58:23;;;;;;;;;;;;;;;23.95;33.81;100633.09;5068562;28;20106;-75
2022/04/19 10:00:50;;;;;;;4.78;1.65;;;;;;;24.10;32.79;100623.69;5070665;28;20012;-76
2022/04/19 10:08:53;;;;;;;3.05;2.75;;;;;;;24.10;31.84;100617.97;5072693;28;20044;-75
2022/04/19 10:11:21;;;;;;;2.53;1.48;;;;;;;24.18;32.11;100618.97;5072496;28;20106;-76
2022/04/19 10:13:48;;;;;;;5.75;2.47;;;;;;;24.20;32.35;100624.28;5065758;28;20076;-76
2022/04/19 10:16:15;;;;;;;3.35;2.08;;;;;;;24.46;31.83;100613.13;5065503;28;20090;-76
2022/04/19 10:18:45;;;;;;;3.60;1.23;;;;;;;24.55;31.36;100622.31;5068236;28;20131;-75
2022/04/19 10:21:18;;;;;;;1.50;1.17;;;;;;;24.55;31.80;100605.19;5053306;28;20127;-75
2022/04/19 10:23:45;;;;;;;4.50;1.00;;;;;;;24.55;31.15;100627.19;5067568;28;20127;-76
2022/04/19 10:26:17;;;;;;;2.50;1.42;;;;;;;24.06;31.83;100602.78;5078499;28;20088;-75
2022/04/19 10:28:52;;;;;;;2.55;2.20;;;;;;;24.02;32.01;100613.28;5071760;28;20096;-76
2022/04/19 10:31:27;;;;;;;2.95;1.40;;;;;;;24.07;32.42;100620.75;5031111;28;20045;-76
2022/04/19 10:33:54;;;;;;;3.58;1.58;;;;;;;23.85;32.07;100614.50;5069535;28;20106;-76
2022/04/19 10:36:35;;;;;;;1.15;1.05;;;;;;;23.92;32.49;100610.19;5054667;28;20148;-76
2022/04/19 10:39:14;;;;;;;1.52;0.98;;;;;;;24.28;31.91;100618.41;5072606;28;20410;-76
2022/04/19 10:41:59;;;;;;;2.17;1.98;;;;;;;24.08;32.08;100602.44;5063735;28;20128;-76
2022/04/19 10:44:45;;;;;;;2.58;1.15;;;;;;;23.54;32.18;100611.63;5067643;28;20517;-76
2022/04/19 10:47:17;;;;;;;4.68;1.17;;;;;;;22.87;33.00;100603.69;5066985;28;20083;-76
2022/04/19 10:50:03;;;;;;;2.05;0.95;;;;;;;22.75;33.15;100620.00;5070323;28;20132;-76
2022/04/19 10:52:36;;;;;;;1.33;0.90;;;;;;;22.85;32.99;100608.91;5069080;28;20109;-75
2022/04/19 10:55:24;;;;;;;2.38;1.60;;;;;;;22.86;32.67;100598.34;5062041;28;20061;-76
2022/04/19 10:58:21;;;;;;;5.05;2.53;;;;;;;23.01;33.20;100588.22;5046820;28;20069;-76
2022/04/19 11:00:49;;;;;;;5.03;1.52;;;;;;;23.07;32.53;100603.84;5065312;28;20053;-77
2022/04/19 11:03:49;;;;;;;3.33;1.67;;;;;;;22.79;33.10;100616.03;5061172;28;20139;-76
2022/04/19 11:06:33;;;;;;;3.83;1.58;;;;;;;23.37;33.29;100595.72;5063894;28;20068;-74
2022/04/19 11:09:26;;;;;;;4.05;1.30;;;;;;;23.31;33.69;100580.06;5070142;28;20110;-76
2022/04/19 11:12:09;;;;;;;1.38;1.27;;;;;;;23.86;34.32;100579.09;5041235;28;20131;-75
2022/04/19 11:14:43;;;;;;;1.90;1.58;;;;;;;23.94;34.51;100596.38;5064321;28;20144;-75
2022/04/19 11:17:25;;;;;;;1.65;0.85;;;;;;;23.89;33.72;100563.25;5065802;28;20122;-77
2022/04/19 11:20:09;;;;;;;2.15;1.25;;;;;;;23.80;33.22;100574.88;5064435;28;20094;-77
2022/04/19 11:22:55;;;;;;;4.13;1.58;;;;;;;23.35;33.94;100553.34;5070933;28;20055;-76
2022/04/19 11:25:42;;;;;;;1.48;1.02;;;;;;;23.24;35.46;100575.00;5061619;28;20076;-76
2022/04/19 11:28:11;;;;;;;1.95;1.05;;;;;;;23.68;35.22;100583.50;5047464;28;20150;-76
2022/04/19 11:31:12;;;;;;;1.92;1.25;;;;;;;24.19;34.92;100565.59;5058991;28;20148;-76
2022/04/19 11:33:39;;;;;;;2.67;1.83;;;;;;;24.67;34.25;100578.50;5066400;28;20039;-76
2022/04/19 11:36:08;;;;;;;4.38;1.25;;;;;;;24.96;32.65;100593.38;5061485;28;20574;-76
2022/04/19 11:38:40;;;;;;;2.08;1.33;;;;;;;25.27;32.82;100555.22;5072132;28;20086;-76
2022/04/19 11:46:46;;;;;;;2.40;1.27;;;;;;;26.39;30.95;100565.22;5063284;28;20498;-76
2022/04/19 11:49:18;;;;;;;1.08;0.80;;;;;;;26.53;30.65;100553.16;5060715;28;20109;-75
2022/04/19 11:51:46;;;;;;;2.45;0.82;;;;;;;26.49;29.34;100563.69;5063796;28;20050;-76
2022/04/19 11:54:27;;;;;;;2.33;1.23;;;;;;;26.24;28.70;100569.06;5067061;28;20053;-74
2022/04/19 11:56:56;;;;;;;2.97;1.10;;;;;;;25.99;27.99;100551.53;5068351;28;20118;-74
2022/04/19 11:59:35;;;;;;;1.48;0.95;;;;;;;26.27;27.60;100556.03;5065527;28;20048;-74
2022/04/19 12:02:05;;;;;;;2.25;0.73;;;;;;;26.12;27.21;100557.84;5049257;28;20467;-75
2022/04/19 12:04:32;;;;;;;2.63;1.40;;;;;;;24.66;27.70;100544.63;5062470;28;20053;-74
2022/04/19 12:07:03;;;;;;;1.92;1.13;;;;;;;24.26;27.75;100546.59;5061791;28;20138;-74
2022/04/19 12:09:31;;;;;;;2.83;1.40;;;;;;;23.89;28.26;100546.97;5071316;28;20506;-74
2022/04/19 12:12:03;;;;;;;2.97;0.80;;;;;;;22.91;29.17;100536.28;5054497;28;20053;-74
2022/04/19 12:14:31;;;;;;;3.92;0.80;;;;;;;22.44;29.57;100531.28;5066474;28;20091;-74